Aérodrome :
LOGIN :

S'inscrire | Disclaimer

   EN    FR    IT 

 










Légende :    VFR   VFR Marginal   IFR   IFR Intensif   IFR Très Intensif
Visi : 
Plafond : 
>= 8 km
>= 3000ft
5 à 8 km
1000 à 3000 ft
1500m à 5 km
500 à 1000 ft
800 à 1500m
200 à 500 ft
< 800m
< 200 ft
Symboles :   Orages  Brouillard  Fortes neiges  Fortes précipitations  Vent > 20 kt
SIGMETs :   Divers  Orages  Givrage  Turbulence  Onde Orograph.  Cendres Volcan.







- Altitude de l'aérodrome : 1325 ft
- Code IATA : EBU
- Voir les cartes d'approche


LFMH - St-Etienne Boutheon

DERNIER METAR :
  • 291100Z AUTO 36004KT 300V070 CAVOK 13/01 Q1016 NOSIG

METARs EXPIRÉS :
  • 291030Z AUTO VRB03KT CAVOK 12/01 Q1016 NOSIG
  • 291000Z AUTO VRB03KT CAVOK 11/01 Q1016 NOSIG
  • 290930Z AUTO VRB03KT CAVOK 10/03 Q1017 NOSIG
  • 290900Z AUTO VRB03KT CAVOK 09/02 Q1017 NOSIG
  • 290830Z AUTO VRB03KT CAVOK 08/01 Q1017 NOSIG

TAF TAF LFMH
Valide du 29 à 09h jusqu'au 30 à 09h UTC


290800Z 2909/3009 VRB04KT CAVOK
BECMG 2918/2920 17010KT
ATIS : +33 4 77 36 17 51
Pas de NOTAMs connus pour ce terrain.



MET'MAP, la Météo Aéronautique d'un coup d'oeil ! - Copyright ORBIFLY Décembre 2007 - Disclaimer

ORBIFLY MET'MAP TEAM :

Programmation & Développement : Alexandra Zaïnal
Conception & Développement : Baudouin d'Aumeries
Co-Programmation & Développement : Marc-Olivier Méhu
Soutien technique & logistique : Manuel Goepfert

Contact : metmap@orbifly.com




SOURCES & CREDITS :

   NOAA